Daisy Vestry, Mississippi
Current Conditions -  °F | °C
As of 10:53 AM on Sunday 23 Nov 2014 (Local Time) from KGPT Reporting Station
Light Rain Light Rain  
Wind Chill: 62°   Ceiling: 10000
Heat Index: 62°   Visibility: 9mi
Dew Point: 59°   Wind: 12mph
Humidity: 90%   Direction: 170°S
Pressure: 29.7"   Gusts: 21mph
Location:  30.7239°N, 89.1669°W
Report Text: KGPT 231653Z 17010G18KT 9SM -RA BKN100 OVC120 17/15 A2970 RMK AO2 SLP056 P0005 T01670150
Loading
Personal Weather Stations






























Interactive Weather Map New forecast layout! Learn more

10-Day Weather Forecast

Advertisements
Track Severe Weather on mobile